createdAt,value
2019-04-29T00:01:09.130Z,53.95
2019-04-29T00:04:39.110Z,54.03
2019-04-29T00:08:09.244Z,54.06
2019-04-29T00:11:39.224Z,54.13
2019-04-29T00:15:27.289Z,54.2
2019-04-29T00:19:38.883Z,54.24
2019-04-29T00:23:08.939Z,54.31
2019-04-29T00:26:39.220Z,54.36
2019-04-29T00:30:17.945Z,54.39
2019-04-29T00:33:48.009Z,54.43
2019-04-29T00:37:30.845Z,54.47
2019-04-29T00:41:19.517Z,54.51
2019-04-29T00:44:49.633Z,54.55
2019-04-29T00:48:19.792Z,54.58
2019-04-29T00:51:49.955Z,54.63
2019-04-29T00:55:23.318Z,54.64
2019-04-29T00:58:53.353Z,54.67
2019-04-29T01:00:29.644Z,54.69
2019-04-29T01:03:59.754Z,54.72
2019-04-29T01:07:29.878Z,54.75
2019-04-29T01:10:59.922Z,54.78
2019-04-29T01:14:29.994Z,54.79
2019-04-29T01:18:01.002Z,54.81
2019-04-29T01:21:31.106Z,54.85
2019-04-29T01:25:01.259Z,54.87
2019-04-29T01:28:38.191Z,54.86
2019-04-29T01:32:08.438Z,54.87
2019-04-29T01:35:38.583Z,54.91
2019-04-29T01:39:10.622Z,54.9
2019-04-29T01:42:41.353Z,54.91
2019-04-29T01:46:11.478Z,54.95
2019-04-29T01:49:41.520Z,54.97
2019-04-29T01:53:11.527Z,54.99
2019-04-29T01:56:41.768Z,55.01
2019-04-29T02:00:12.614Z,55.03
2019-04-29T02:03:42.811Z,55.06
2019-04-29T02:07:12.838Z,55.05
2019-04-29T02:10:42.841Z,55.07
2019-04-29T02:14:12.966Z,55.09
2019-04-29T02:17:43.067Z,55.12
2019-04-29T02:21:14.002Z,55.15
2019-04-29T02:24:48.171Z,55.15
2019-04-29T02:28:18.328Z,55.18
2019-04-29T02:31:48.577Z,55.18
2019-04-29T02:35:18.645Z,55.18
2019-04-29T02:39:07.270Z,55.19
2019-04-29T02:42:48.661Z,55.23
2019-04-29T02:46:18.723Z,55.21
2019-04-29T02:49:48.761Z,55.22
2019-04-29T02:53:18.793Z,55.23
2019-04-29T02:56:59.128Z,55.25
2019-04-29T03:00:30.006Z,55.22
2019-04-29T03:04:07.682Z,55.24
2019-04-29T03:07:37.733Z,55.24
2019-04-29T03:11:07.882Z,55.24
2019-04-29T03:14:37.945Z,55.22
2019-04-29T03:18:08.036Z,55.2
2019-04-29T03:21:56.246Z,55.21
2019-04-29T03:25:26.367Z,55.19
2019-04-29T03:28:56.457Z,55.17
2019-04-29T03:32:26.580Z,55.16
2019-04-29T03:35:56.661Z,55.15
2019-04-29T03:39:26.826Z,55.11
2019-04-29T03:42:56.847Z,55.11
2019-04-29T03:46:26.946Z,55.09
2019-04-29T03:49:57.114Z,55.06
2019-04-29T03:53:28.460Z,55.03
2019-04-29T03:56:58.662Z,54.98
2019-04-29T04:00:28.785Z,54.95
2019-04-29T04:04:03.184Z,54.91
2019-04-29T04:07:39.774Z,54.87
2019-04-29T04:11:09.896Z,54.81
2019-04-29T04:14:39.992Z,54.76
2019-04-29T04:18:16.843Z,54.69
2019-04-29T04:21:46.901Z,54.62
2019-04-29T04:25:18.171Z,54.58
2019-04-29T04:28:48.255Z,54.48
2019-04-29T04:32:18.358Z,54.42
2019-04-29T04:35:48.432Z,54.36
2019-04-29T04:39:18.437Z,54.3
2019-04-29T04:42:48.534Z,54.26
2019-04-29T04:46:18.513Z,54.19
2019-04-29T04:49:48.708Z,54.12
2019-04-29T04:53:18.786Z,54.1
2019-04-29T04:56:48.830Z,54.09
2019-04-29T05:00:21.462Z,54.07
2019-04-29T05:03:51.580Z,54.08
2019-04-29T05:07:21.712Z,54.12
2019-04-29T05:10:51.920Z,54.12
2019-04-29T05:14:22.059Z,54.14
2019-04-29T05:17:53.276Z,54.2
2019-04-29T05:21:23.422Z,54.17
2019-04-29T05:24:53.440Z,54.19
2019-04-29T05:28:23.471Z,54.2
2019-04-29T05:31:53.587Z,54.19
2019-04-29T05:35:29.118Z,54.23
2019-04-29T05:39:09.876Z,54.22
2019-04-29T05:42:39.959Z,54.27
2019-04-29T05:48:32.181Z,54.35
2019-04-29T05:54:26.974Z,54.45
2019-04-29T05:58:16.969Z,54.52
2019-04-29T06:01:47.549Z,54.6
2019-04-29T06:05:18.888Z,54.66
2019-04-29T06:08:49.023Z,54.69
2019-04-29T06:12:18.966Z,54.69
2019-04-29T06:15:49.120Z,54.74
2019-04-29T06:19:19.177Z,54.73
2019-04-29T06:22:49.326Z,54.74
2019-04-29T06:26:19.487Z,54.75
2019-04-29T06:29:51.352Z,54.77
2019-04-29T06:33:24.138Z,54.79
2019-04-29T06:36:58.533Z,54.8
2019-04-29T06:40:30.750Z,54.8
2019-04-29T06:44:06.650Z,54.79
2019-04-29T06:47:41.788Z,54.81
2019-04-29T06:51:11.983Z,54.78
2019-04-29T06:54:42.015Z,54.76
2019-04-29T06:58:12.080Z,54.73
2019-04-29T07:00:17.636Z,54.72
2019-04-29T07:03:51.798Z,54.65
2019-04-29T07:07:21.943Z,54.62
2019-04-29T07:10:55.983Z,54.58
2019-04-29T07:14:33.308Z,54.5
2019-04-29T07:18:04.834Z,54.43
2019-04-29T07:21:34.928Z,54.37
2019-04-29T07:25:05.269Z,54.26
2019-04-29T07:28:35.360Z,54.17
2019-04-29T07:32:09.338Z,54.08
2019-04-29T07:35:43.060Z,53.98
2019-04-29T07:39:17.346Z,53.86
2019-04-29T07:42:47.396Z,53.78
2019-04-29T07:46:24.719Z,53.7
2019-04-29T07:49:54.844Z,53.6
2019-04-29T07:53:34.481Z,53.5
2019-04-29T07:57:12.371Z,53.41
2019-04-29T08:00:48.882Z,53.29
2019-04-29T08:04:20.089Z,53.2
2019-04-29T08:07:50.496Z,53.09
2019-04-29T08:11:20.632Z,53
2019-04-29T08:14:53.359Z,52.88
2019-04-29T08:18:27.574Z,52.78
2019-04-29T08:21:57.647Z,52.69
2019-04-29T08:25:27.670Z,52.57
2019-04-29T08:29:00.385Z,52.48
2019-04-29T08:32:36.442Z,52.39
2019-04-29T08:36:08.054Z,52.29
2019-04-29T08:39:38.051Z,52.19
2019-04-29T08:43:28.508Z,52.13
2019-04-29T08:47:07.631Z,52
2019-04-29T08:50:37.812Z,51.91
2019-04-29T08:54:07.900Z,51.84
2019-04-29T08:57:37.991Z,51.8
2019-04-29T09:00:17.066Z,51.75
2019-04-29T09:03:47.182Z,51.68
2019-04-29T09:07:21.392Z,51.64
2019-04-29T09:10:52.160Z,51.6
2019-04-29T09:14:22.114Z,51.56
2019-04-29T09:17:52.184Z,51.55
2019-04-29T09:21:22.196Z,51.53
2019-04-29T09:27:17.246Z,51.53
2019-04-29T09:30:47.668Z,51.51
2019-04-29T09:34:19.858Z,51.53
2019-04-29T09:37:58.300Z,51.53
2019-04-29T09:41:39.189Z,51.49
2019-04-29T09:45:19.478Z,51.5
2019-04-29T09:48:52.180Z,51.45
2019-04-29T09:52:22.208Z,51.38
2019-04-29T09:55:52.374Z,51.35
2019-04-29T09:59:27.195Z,51.28
2019-04-29T10:03:04.025Z,51.17
2019-04-29T10:06:36.240Z,51.03
2019-04-29T10:10:06.822Z,50.85
2019-04-29T10:13:37.819Z,50.69
2019-04-29T10:17:21.715Z,50.51
2019-04-29T10:20:58.487Z,50.32
2019-04-29T10:24:28.534Z,50.15
2019-04-29T10:27:58.638Z,49.97
2019-04-29T10:31:28.907Z,49.78
2019-04-29T10:35:03.610Z,49.62
2019-04-29T10:38:40.537Z,49.42
2019-04-29T10:42:22.723Z,49.22
2019-04-29T10:46:30.927Z,49.05
2019-04-29T10:50:05.288Z,48.83
2019-04-29T10:53:35.465Z,48.64
2019-04-29T10:57:05.825Z,48.44
2019-04-29T11:02:13.947Z,48.17
2019-04-29T11:05:59.992Z,47.92
2019-04-29T11:09:52.666Z,47.71
2019-04-29T11:13:23.005Z,47.5
2019-04-29T11:16:53.052Z,47.33
2019-04-29T11:20:23.713Z,47.19
2019-04-29T11:26:28.540Z,46.88
2019-04-29T11:30:02.382Z,46.71
2019-04-29T11:33:46.521Z,46.51
2019-04-29T11:37:19.477Z,46.28
2019-04-29T11:40:50.305Z,46.11
2019-04-29T11:44:21.956Z,45.9
2019-04-29T11:47:56.174Z,45.72
2019-04-29T11:51:41.709Z,45.54
2019-04-29T11:55:20.182Z,45.32
2019-04-29T11:59:01.492Z,45.14
2019-04-29T12:02:45.891Z,44.94
2019-04-29T12:06:20.522Z,44.74
2019-04-29T12:09:51.134Z,44.56
2019-04-29T12:13:31.451Z,44.39
2019-04-29T12:17:16.584Z,44.19
2019-04-29T12:21:07.524Z,43.99
2019-04-29T12:24:37.664Z,43.82
2019-04-29T12:28:18.763Z,43.66
2019-04-29T12:32:32.783Z,43.51
2019-04-29T12:36:06.139Z,43.38
2019-04-29T12:42:40.241Z,43.19
2019-04-29T12:46:16.911Z,43.07
2019-04-29T12:49:48.161Z,42.93
2019-04-29T12:53:18.436Z,42.84
2019-04-29T12:56:49.490Z,42.69
2019-04-29T13:00:22.262Z,42.55
2019-04-29T13:03:58.521Z,42.41
2019-04-29T13:07:50.439Z,42.21
2019-04-29T13:11:22.353Z,41.99
2019-04-29T13:15:12.661Z,41.76
2019-04-29T13:19:20.750Z,41.57
2019-04-29T13:22:50.942Z,41.3
2019-04-29T13:26:27.783Z,41.07
2019-04-29T13:29:58.760Z,40.81
2019-04-29T13:33:28.930Z,40.55
2019-04-29T13:37:07.377Z,40.31
2019-04-29T13:40:39.445Z,40.04
2019-04-29T13:44:10.550Z,39.82
2019-04-29T13:50:17.993Z,39.49
2019-04-29T13:53:50.429Z,39.23
2019-04-29T13:57:20.578Z,39.04
2019-04-29T14:01:02.780Z,38.86
2019-04-29T14:04:37.125Z,38.64
2019-04-29T14:08:07.291Z,38.45
2019-04-29T14:11:37.505Z,38.25
2019-04-29T14:15:07.812Z,38.02
2019-04-29T14:18:37.945Z,37.81
2019-04-29T14:22:21.059Z,37.57
2019-04-29T14:25:52.254Z,37.34
2019-04-29T14:29:23.044Z,37.1
2019-04-29T14:33:01.947Z,36.85
2019-04-29T14:36:32.197Z,36.62
2019-04-29T14:40:07.241Z,36.35
2019-04-29T14:43:54.467Z,36.1
2019-04-29T14:47:35.484Z,35.83
2019-04-29T14:51:05.827Z,35.6
2019-04-29T14:54:36.984Z,35.39
2019-04-29T14:58:11.678Z,35.21
2019-04-29T15:00:29.467Z,35.13
2019-04-29T15:04:01.545Z,34.95
2019-04-29T15:07:35.852Z,34.75
2019-04-29T15:11:09.097Z,34.59
2019-04-29T15:15:06.407Z,34.48
2019-04-29T15:21:06.815Z,34.3
2019-04-29T15:24:38.038Z,34.19
2019-04-29T15:28:08.196Z,34.15
2019-04-29T15:31:38.253Z,34.12
2019-04-29T15:35:08.461Z,34.14
2019-04-29T15:38:38.603Z,34.2
2019-04-29T15:42:09.151Z,34.29
2019-04-29T15:45:40.640Z,34.34
2019-04-29T15:49:11.953Z,34.4
2019-04-29T15:52:42.034Z,34.46
2019-04-29T15:56:27.654Z,34.5
2019-04-29T16:00:01.056Z,34.51
2019-04-29T16:03:31.307Z,34.53
2019-04-29T16:07:24.512Z,34.61
2019-04-29T16:12:20.866Z,34.7
2019-04-29T16:15:50.939Z,34.77
2019-04-29T16:19:21.044Z,34.86
2019-04-29T16:22:54.066Z,35
2019-04-29T16:26:30.450Z,35.13
2019-04-29T16:30:02.788Z,35.26
2019-04-29T16:33:32.890Z,35.42
2019-04-29T16:37:03.447Z,35.61
2019-04-29T16:40:39.466Z,35.8
2019-04-29T16:44:33.992Z,36
2019-04-29T16:48:05.346Z,36.2
2019-04-29T16:51:36.347Z,36.4
2019-04-29T16:55:06.920Z,36.62
2019-04-29T16:58:37.022Z,36.86
2019-04-29T17:00:23.221Z,36.93
2019-04-29T17:03:53.295Z,37.16
2019-04-29T17:07:23.647Z,37.38
2019-04-29T17:11:17.758Z,37.66
2019-04-29T17:15:04.075Z,37.95
2019-04-29T17:18:34.976Z,38.25
2019-04-29T17:28:12.087Z,39.01
2019-04-29T17:34:25.107Z,39.54
2019-04-29T17:35:14.702Z,38.54
2019-04-29T17:38:14.023Z,39.83
2019-04-29T17:41:44.159Z,40.08
2019-04-29T17:45:27.102Z,40.32
2019-04-29T17:49:12.013Z,40.57
2019-04-29T17:52:42.215Z,40.8
2019-04-29T17:56:24.676Z,41.02
2019-04-29T18:00:08.687Z,41.21
2019-04-29T18:05:20.165Z,41.5
2019-04-29T18:08:55.132Z,41.71
2019-04-29T18:12:25.257Z,41.89
2019-04-29T18:16:01.592Z,42.08
2019-04-29T18:19:47.146Z,42.28
2019-04-29T18:23:47.113Z,42.45
2019-04-29T18:27:19.076Z,42.65
2019-04-29T18:30:49.767Z,42.8
2019-04-29T18:34:25.125Z,42.96
2019-04-29T18:37:55.705Z,43.12
2019-04-29T18:41:28.685Z,43.27
2019-04-29T18:45:00.404Z,43.45
2019-04-29T18:48:30.552Z,43.63
2019-04-29T18:52:02.318Z,43.78
2019-04-29T18:55:35.364Z,43.96
2019-04-29T18:59:05.494Z,44.11
2019-04-29T19:00:19.989Z,44.18
2019-04-29T19:04:18.643Z,44.35
2019-04-29T19:07:55.116Z,44.54
2019-04-29T19:11:32.145Z,44.71
2019-04-29T19:15:05.061Z,44.94
2019-04-29T19:18:40.233Z,45.14
2019-04-29T19:22:10.206Z,45.33
2019-04-29T19:25:41.615Z,45.54
2019-04-29T19:29:15.715Z,45.78
2019-04-29T19:32:46.880Z,45.98
2019-04-29T19:36:18.522Z,46.2
2019-04-29T19:39:52.475Z,46.46
2019-04-29T19:43:26.191Z,46.72
2019-04-29T19:46:58.932Z,46.95
2019-04-29T19:50:29.089Z,47.21
2019-04-29T19:53:59.125Z,47.46
2019-04-29T19:57:29.284Z,47.74
2019-04-29T20:01:13.996Z,48
2019-04-29T20:04:58.872Z,48.26
2019-04-29T20:08:48.302Z,48.54
2019-04-29T20:12:25.250Z,48.84
2019-04-29T20:16:21.012Z,49.13
2019-04-29T20:20:00.297Z,49.41
2019-04-29T20:23:35.842Z,49.7
2019-04-29T20:27:08.853Z,49.97
2019-04-29T20:30:38.980Z,50.25
2019-04-29T20:34:09.502Z,50.52
2019-04-29T20:37:39.825Z,50.79
2019-04-29T20:41:13.020Z,51.05
2019-04-29T20:44:49.361Z,51.33
2019-04-29T20:48:19.906Z,51.57
2019-04-29T20:51:56.333Z,51.83
2019-04-29T20:55:26.543Z,52.09
2019-04-29T20:58:57.681Z,52.33
2019-04-29T21:00:20.189Z,52.42
2019-04-29T21:03:56.514Z,52.66
2019-04-29T21:07:27.022Z,52.9
2019-04-29T21:11:01.102Z,53.13
2019-04-29T21:14:38.190Z,53.35
2019-04-29T21:18:10.343Z,53.59
2019-04-29T21:21:45.808Z,53.8
2019-04-29T21:25:17.555Z,54.03
2019-04-29T21:28:47.637Z,54.24
2019-04-29T21:32:17.673Z,54.48
2019-04-29T21:35:57.864Z,54.68
2019-04-29T21:40:13.721Z,54.9
2019-04-29T21:47:26.805Z,55.39
2019-04-29T21:50:58.329Z,55.59
2019-04-29T21:54:28.386Z,55.82
2019-04-29T21:57:58.974Z,56.02
2019-04-29T22:01:34.272Z,56.24
2019-04-29T22:05:09.577Z,56.47
2019-04-29T22:08:45.220Z,56.68
2019-04-29T22:12:20.301Z,56.91
2019-04-29T22:15:51.446Z,57.12
2019-04-29T22:19:26.113Z,57.32
2019-04-29T22:22:57.951Z,57.54
2019-04-29T22:26:28.029Z,57.74
2019-04-29T22:29:58.240Z,57.94
2019-04-29T22:33:29.672Z,58.13
2019-04-29T22:37:05.539Z,58.34
2019-04-29T22:40:40.904Z,58.55
2019-04-29T22:44:15.154Z,58.73
2019-04-29T22:47:54.397Z,58.94
2019-04-29T22:51:25.435Z,59.09
2019-04-29T22:54:57.899Z,59.28
2019-04-29T22:58:31.465Z,59.49
2019-04-29T23:00:20.426Z,59.56
2019-04-29T23:03:51.523Z,59.75
2019-04-29T23:07:22.298Z,59.94
2019-04-29T23:10:55.455Z,60.11
2019-04-29T23:14:27.494Z,60.29
2019-04-29T23:17:57.551Z,60.48
2019-04-29T23:23:48.639Z,60.76
2019-04-29T23:27:19.661Z,60.96
2019-04-29T23:30:52.173Z,61.12
2019-04-29T23:34:27.723Z,61.31
2019-04-29T23:38:04.177Z,61.47
2019-04-29T23:41:38.962Z,61.67
2019-04-29T23:45:09.282Z,61.83
2019-04-29T23:48:39.788Z,62
2019-04-29T23:52:11.555Z,62.16
2019-04-29T23:55:45.562Z,62.3
2019-04-29T23:59:24.793Z,62.43
